メインページ
METAR-TAF:

METAR-TAF

空港 :

Golden, ブリティッシュコロンビア州, カナダ

緯度: 51-18N, 経度: 116-59W, 海抜: 785m

現時点の気象観測

当レポートは4時間41分前の00:00(UTC)に作成
南東の風 14kt、最大23ktの突風を伴う
気温 17°C
湿度 25%
気圧 1007 hPa
視程: 32.2km
高度8000ftの雲は散在している
高度10000ftの千切れ雲あり

METAR: CYGE 210000Z 14014G23KT 20SM SCT080 BKN100 17/M03 A2974 RMK CU3AC4 LAST STFD OBS/NEXT 211200Z SLP084 DENSITY ALT 3600FT

時間: 22:41 (04:41 UTC)


TAF: 見つかりません

4,000以上の空港の気象観測と天気予報(METAR報とTAF報)

利用可能な観測所は地図上に黄色い丸と赤い丸で示す。

丸の上にカーソルを重ねると観測所名を参照できる。

次にクリックすると気象観測と天気予報を参照できる。

マップの切り替え:黒色「×」印の緑ボタンをクリックして拡大、「-」印の緑ボタンをクリックして縮小、緑色の三角印をクリックして隣りの地図に切り替え


METAR-TAF: